createdAt,value
2019-03-24T00:01:41.217Z,21.57
2019-03-24T00:04:06.392Z,19.23
2019-03-24T00:06:35.948Z,18.13
2019-03-24T00:09:07.575Z,23.57
2019-03-24T00:11:37.199Z,21.37
2019-03-24T00:14:06.727Z,17.27
2019-03-24T00:16:36.301Z,19.30
2019-03-24T00:19:05.904Z,23.63
2019-03-24T00:21:35.307Z,22.17
2019-03-24T00:24:04.855Z,23.90
2019-03-24T00:26:34.561Z,20.05
2019-03-24T00:29:04.183Z,21.13
2019-03-24T00:31:33.623Z,24.50
2019-03-24T00:34:03.287Z,23.70
2019-03-24T00:36:32.841Z,24.43
2019-03-24T00:39:02.341Z,19.77
2019-03-24T00:41:31.691Z,20.57
2019-03-24T00:44:01.146Z,23.00
2019-03-24T00:46:30.817Z,26.33
2019-03-24T00:49:00.279Z,20.63
2019-03-24T00:51:29.691Z,22.33
2019-03-24T00:53:59.137Z,24.80
2019-03-24T00:56:28.727Z,24.07
2019-03-24T00:58:58.450Z,22.57
2019-03-24T01:01:27.999Z,25.77
2019-03-24T01:03:57.512Z,22.53
2019-03-24T01:06:26.960Z,22.97
2019-03-24T01:08:56.380Z,26.53
2019-03-24T01:11:25.904Z,22.43
2019-03-24T01:13:55.343Z,23.27
2019-03-24T01:16:24.756Z,23.17
2019-03-24T01:18:54.488Z,19.00
2019-03-24T01:21:24.216Z,22.40
2019-03-24T01:23:53.931Z,23.80
2019-03-24T01:26:23.693Z,20.33
2019-03-24T01:28:53.331Z,23.10
2019-03-24T01:31:22.838Z,21.30
2019-03-24T01:33:52.271Z,25.00
2019-03-24T01:36:22.059Z,21.83
2019-03-24T01:38:51.863Z,24.40
2019-03-24T01:41:21.291Z,24.63
2019-03-24T01:43:51.384Z,26.60
2019-03-24T01:46:20.708Z,23.70
2019-03-24T01:48:50.598Z,20.45
2019-03-24T01:51:19.937Z,23.57
2019-03-24T01:53:49.371Z,24.80
2019-03-24T01:56:18.792Z,22.60
2019-03-24T01:58:48.128Z,25.77
2019-03-24T02:01:17.532Z,22.13
2019-03-24T02:03:47.191Z,26.60
2019-03-24T02:06:16.707Z,25.00
2019-03-24T02:08:46.069Z,28.93
2019-03-24T02:11:16.156Z,23.53
2019-03-24T02:13:45.508Z,26.53
2019-03-24T02:16:15.220Z,19.30
2019-03-24T02:18:44.579Z,25.23
2019-03-24T02:21:13.967Z,25.83
2019-03-24T02:23:43.471Z,27.97
2019-03-24T02:26:12.772Z,20.70
2019-03-24T02:28:42.191Z,25.93
2019-03-24T02:31:11.903Z,24.00
2019-03-24T02:33:41.284Z,26.77
2019-03-24T02:36:10.688Z,23.37
2019-03-24T02:38:40.025Z,22.00
2019-03-24T02:41:09.433Z,23.12
2019-03-24T02:43:38.862Z,25.13
2019-03-24T02:46:08.334Z,28.90
2019-03-24T02:48:37.758Z,23.42
2019-03-24T02:51:07.186Z,26.68
2019-03-24T02:53:36.940Z,24.57
2019-03-24T02:56:07.072Z,27.93
2019-03-24T02:58:36.495Z,28.23
2019-03-24T03:01:06.063Z,25.25
2019-03-24T03:03:35.393Z,23.20
2019-03-24T03:06:05.056Z,19.60
2019-03-24T03:08:34.468Z,22.43
2019-03-24T03:11:04.407Z,29.10
2019-03-24T03:13:33.846Z,24.60
2019-03-24T03:16:03.562Z,26.07
2019-03-24T03:18:32.938Z,21.93
2019-03-24T03:21:02.734Z,24.83
2019-03-24T03:23:32.337Z,25.00
2019-03-24T03:26:02.261Z,27.50
2019-03-24T03:28:32.055Z,25.00
2019-03-24T03:31:01.434Z,27.22
2019-03-24T03:33:31.086Z,27.22
2019-03-24T03:36:00.441Z,32.17
2019-03-24T03:38:30.105Z,31.43
2019-03-24T03:41:00.124Z,28.03
2019-03-24T03:43:29.781Z,28.97
2019-03-24T03:45:59.526Z,26.75
2019-03-24T03:48:28.884Z,24.77
2019-03-24T03:50:58.291Z,28.30
2019-03-24T03:53:27.636Z,28.02
2019-03-24T03:55:57.029Z,25.62
2019-03-24T03:58:26.476Z,25.70
2019-03-24T04:00:55.967Z,28.75
2019-03-24T04:03:25.363Z,27.90
2019-03-24T04:05:54.867Z,29.85
2019-03-24T04:08:24.381Z,29.70
2019-03-24T04:10:54.445Z,27.70
2019-03-24T04:13:23.804Z,25.90
2019-03-24T04:15:53.466Z,30.33
2019-03-24T04:18:22.800Z,27.45
2019-03-24T04:20:52.136Z,31.17
2019-03-24T04:23:21.547Z,27.52
2019-03-24T04:25:50.916Z,29.45
2019-03-24T04:28:20.371Z,27.70
2019-03-24T04:30:49.708Z,24.00
2019-03-24T04:33:19.152Z,28.80
2019-03-24T04:35:48.824Z,27.00
2019-03-24T04:38:18.426Z,28.07
2019-03-24T04:40:47.775Z,22.48
2019-03-24T04:43:17.613Z,25.87
2019-03-24T04:45:47.768Z,26.27
2019-03-24T04:48:17.498Z,24.95
2019-03-24T04:50:46.939Z,27.48
2019-03-24T04:53:16.652Z,29.70
2019-03-24T04:55:46.136Z,27.60
2019-03-24T04:58:15.480Z,30.85
2019-03-24T05:00:45.309Z,29.67
2019-03-24T05:03:14.719Z,24.98
2019-03-24T05:05:44.513Z,23.32
2019-03-24T05:08:14.965Z,30.32
2019-03-24T05:10:44.452Z,28.52
2019-03-24T05:13:13.885Z,26.25
2019-03-24T05:15:43.247Z,30.13
2019-03-24T05:18:12.785Z,31.10
2019-03-24T05:20:42.502Z,28.70
2019-03-24T05:23:12.026Z,27.35
2019-03-24T05:25:41.393Z,30.08
2019-03-24T05:28:11.084Z,31.05
2019-03-24T05:30:40.583Z,31.90
2019-03-24T05:33:10.039Z,29.60
2019-03-24T05:35:39.378Z,28.15
2019-03-24T05:38:09.200Z,31.10
2019-03-24T05:40:38.568Z,26.48
2019-03-24T05:43:08.177Z,30.27
2019-03-24T05:45:37.848Z,29.72
2019-03-24T05:48:07.306Z,30.97
2019-03-24T05:50:36.741Z,23.70
2019-03-24T05:53:06.159Z,30.52
2019-03-24T05:55:35.747Z,32.13
2019-03-24T05:58:05.287Z,26.87
2019-03-24T06:00:35.655Z,28.77
2019-03-24T06:03:05.115Z,29.77
2019-03-24T06:05:34.575Z,21.20
2019-03-24T06:08:04.434Z,26.77
2019-03-24T06:10:33.881Z,28.97
2019-03-24T06:13:03.322Z,30.23
2019-03-24T06:15:32.774Z,27.20
2019-03-24T06:18:02.807Z,27.02
2019-03-24T06:20:32.425Z,26.87
2019-03-24T06:23:02.135Z,26.13
2019-03-24T06:25:34.743Z,26.20
2019-03-24T06:28:02.673Z,25.40
2019-03-24T06:30:31.987Z,22.40
2019-03-24T06:33:01.375Z,28.10
2019-03-24T06:35:31.142Z,28.50
2019-03-24T06:38:00.892Z,27.33
2019-03-24T06:40:30.293Z,27.23
2019-03-24T06:42:59.700Z,26.63
2019-03-24T06:45:29.715Z,25.90
2019-03-24T06:47:59.136Z,29.37
2019-03-24T06:50:28.923Z,24.97
2019-03-24T06:52:59.217Z,25.13
2019-03-24T06:55:28.923Z,26.77
2019-03-24T06:57:58.442Z,20.77
2019-03-24T07:00:27.864Z,26.47
2019-03-24T07:02:57.175Z,27.27
2019-03-24T07:05:26.562Z,25.13
2019-03-24T07:07:56.244Z,25.00
2019-03-24T07:10:26.003Z,25.70
2019-03-24T07:12:55.775Z,23.90
2019-03-24T07:15:25.182Z,27.17
2019-03-24T07:17:54.512Z,24.23
2019-03-24T07:20:24.021Z,25.27
2019-03-24T07:22:53.459Z,23.70
2019-03-24T07:25:22.907Z,21.00
2019-03-24T07:27:52.853Z,25.00
2019-03-24T07:30:22.578Z,21.77
2019-03-24T07:32:53.660Z,25.13
2019-03-24T07:35:23.045Z,23.63
2019-03-24T07:37:52.375Z,23.70
2019-03-24T07:40:24.087Z,26.40
2019-03-24T07:42:54.577Z,23.40
2019-03-24T07:45:24.859Z,21.37
2019-03-24T07:47:55.110Z,23.43
2019-03-24T07:50:25.003Z,24.70
2019-03-24T07:52:55.263Z,23.23
2019-03-24T07:55:25.895Z,25.70
2019-03-24T07:57:55.981Z,23.93
2019-03-24T08:00:34.693Z,22.87
2019-03-24T08:03:05.406Z,23.77
2019-03-24T08:05:35.217Z,21.83
2019-03-24T08:08:06.122Z,21.90
2019-03-24T08:10:36.223Z,23.87
2019-03-24T08:13:09.182Z,23.00
2019-03-24T08:15:39.499Z,20.40
2019-03-24T08:18:11.178Z,21.03
2019-03-24T08:20:42.304Z,23.70
2019-03-24T08:23:12.443Z,23.30
2019-03-24T08:25:43.106Z,20.80
2019-03-24T08:28:12.921Z,22.20
2019-03-24T08:30:44.360Z,23.10
2019-03-24T08:33:14.507Z,24.23
2019-03-24T08:35:45.005Z,23.13
2019-03-24T08:38:15.327Z,22.40
2019-03-24T08:40:47.479Z,24.87
2019-03-24T08:43:18.046Z,24.00
2019-03-24T08:45:48.547Z,22.57
2019-03-24T08:48:19.710Z,23.20
2019-03-24T08:50:52.815Z,22.90
2019-03-24T08:53:25.786Z,21.73
2019-03-24T08:55:55.556Z,22.20
2019-03-24T08:58:26.267Z,22.40
2019-03-24T09:00:56.514Z,23.53
2019-03-24T09:03:26.497Z,23.23
2019-03-24T09:05:56.441Z,23.47
2019-03-24T09:08:26.257Z,20.20
2019-03-24T09:10:56.869Z,21.73
2019-03-24T09:13:27.767Z,20.63
2019-03-24T09:15:57.932Z,22.97
2019-03-24T09:18:27.963Z,21.67
2019-03-24T09:21:00.232Z,22.33
2019-03-24T09:23:30.220Z,24.13
2019-03-24T09:26:00.565Z,21.27
2019-03-24T09:28:30.791Z,22.30
2019-03-24T09:31:00.590Z,19.20
2019-03-24T09:33:30.902Z,22.23
2019-03-24T09:36:01.076Z,23.03
2019-03-24T09:38:32.023Z,20.93
2019-03-24T09:41:02.062Z,21.67
2019-03-24T09:43:33.036Z,20.40
2019-03-24T09:46:03.769Z,20.00
2019-03-24T09:48:34.358Z,23.17
2019-03-24T09:51:04.716Z,21.13
2019-03-24T09:53:35.178Z,24.63
2019-03-24T09:56:08.396Z,19.30
2019-03-24T09:58:38.792Z,21.27
2019-03-24T10:01:09.864Z,21.20
2019-03-24T10:03:43.236Z,20.50
2019-03-24T10:06:13.239Z,21.10
2019-03-24T10:08:47.192Z,19.80
2019-03-24T10:11:14.722Z,21.60
2019-03-24T10:13:47.360Z,20.30
2019-03-24T10:16:17.201Z,20.80
2019-03-24T10:18:47.323Z,22.20
2019-03-24T10:21:17.545Z,22.10
2019-03-24T10:23:47.678Z,22.30
2019-03-24T10:26:17.782Z,22.90
2019-03-24T10:28:48.378Z,22.20
2019-03-24T10:31:18.443Z,20.70
2019-03-24T10:33:48.478Z,21.10
2019-03-24T10:36:18.783Z,21.67
2019-03-24T10:38:49.023Z,18.57
2019-03-24T10:41:19.822Z,21.10
2019-03-24T10:43:49.646Z,20.07
2019-03-24T10:46:19.559Z,19.40
2019-03-24T10:48:49.767Z,19.90
2019-03-24T10:51:19.917Z,19.07
2019-03-24T10:53:49.871Z,21.60
2019-03-24T10:56:36.476Z,19.80
2019-03-24T10:59:06.755Z,20.97
2019-03-24T11:01:37.782Z,19.43
2019-03-24T11:04:07.797Z,21.83
2019-03-24T11:06:37.886Z,20.07
2019-03-24T11:09:08.526Z,20.40
2019-03-24T11:11:38.899Z,20.37
2019-03-24T11:14:08.888Z,21.47
2019-03-24T11:16:39.227Z,19.80
2019-03-24T11:19:09.986Z,16.93
2019-03-24T11:21:41.801Z,19.30
2019-03-24T11:24:12.774Z,17.07
2019-03-24T11:26:42.938Z,21.00
2019-03-24T11:29:16.483Z,20.60
2019-03-24T11:31:50.032Z,19.20
2019-03-24T11:34:20.226Z,18.83
2019-03-24T11:36:50.787Z,20.33
2019-03-24T11:39:21.047Z,19.53
2019-03-24T11:41:51.708Z,23.00
2019-03-24T11:44:24.044Z,20.80
2019-03-24T11:46:54.392Z,19.47
2019-03-24T11:49:24.421Z,20.07
2019-03-24T11:51:54.643Z,20.27
2019-03-24T11:54:24.750Z,19.60
2019-03-24T11:56:55.290Z,16.93
2019-03-24T11:59:28.426Z,17.20
2019-03-24T12:01:58.970Z,18.60
2019-03-24T12:04:32.320Z,17.30
2019-03-24T12:07:02.742Z,18.90
2019-03-24T12:09:33.055Z,19.87
2019-03-24T12:12:04.076Z,18.47
2019-03-24T12:14:34.122Z,19.20
2019-03-24T12:17:04.400Z,20.47
2019-03-24T12:19:35.018Z,19.00
2019-03-24T12:22:05.155Z,21.77
2019-03-24T12:24:35.543Z,18.67
2019-03-24T12:27:06.596Z,19.20
2019-03-24T12:29:45.472Z,18.40
2019-03-24T12:32:19.420Z,17.70
2019-03-24T12:34:52.717Z,19.70
2019-03-24T12:37:24.928Z,18.27
2019-03-24T12:39:54.833Z,17.10
2019-03-24T12:42:24.977Z,16.87
2019-03-24T12:44:55.352Z,16.27
2019-03-24T12:47:25.316Z,17.87
2019-03-24T12:50:07.969Z,17.97
2019-03-24T12:52:29.099Z,22.40
2019-03-24T12:54:59.601Z,17.13
2019-03-24T12:57:30.325Z,19.53
2019-03-24T13:00:03.179Z,19.30
2019-03-24T13:02:33.708Z,18.03
2019-03-24T13:05:07.372Z,17.27
2019-03-24T13:07:37.593Z,18.20
2019-03-24T13:10:08.547Z,17.53
2019-03-24T13:12:38.827Z,18.73
2019-03-24T13:15:09.979Z,12.70
2019-03-24T13:17:40.363Z,17.97
2019-03-24T13:20:20.117Z,19.70
2019-03-24T13:22:42.787Z,19.17
2019-03-24T13:25:15.022Z,19.40
2019-03-24T13:27:46.428Z,18.27
2019-03-24T13:30:17.042Z,18.10
2019-03-24T13:32:47.556Z,16.77
2019-03-24T13:35:18.271Z,18.97
2019-03-24T13:37:48.859Z,16.53
2019-03-24T13:40:18.954Z,16.87
2019-03-24T13:42:49.867Z,17.90
2019-03-24T13:45:19.745Z,15.87
2019-03-24T13:47:50.115Z,17.80
2019-03-24T13:50:31.042Z,19.17
2019-03-24T13:52:54.569Z,18.57
2019-03-24T13:55:24.895Z,21.63
2019-03-24T13:57:54.813Z,16.60
2019-03-24T14:00:25.042Z,14.80
2019-03-24T14:02:55.223Z,17.30
2019-03-24T14:05:25.852Z,14.30
2019-03-24T14:07:55.169Z,16.83
2019-03-24T14:10:25.168Z,13.30
2019-03-24T14:12:55.162Z,14.80
2019-03-24T14:15:27.920Z,16.13
2019-03-24T14:17:57.790Z,15.50
2019-03-24T14:20:27.729Z,15.60
2019-03-24T14:22:57.793Z,12.97
2019-03-24T14:25:27.959Z,14.60
2019-03-24T14:27:57.990Z,16.83
2019-03-24T14:30:42.423Z,13.93
2019-03-24T14:33:12.997Z,14.90
2019-03-24T14:35:43.400Z,14.57
2019-03-24T14:38:13.897Z,15.30
2019-03-24T14:40:43.856Z,13.37
2019-03-24T14:43:14.001Z,12.63
2019-03-24T14:45:44.124Z,13.60
2019-03-24T14:48:14.190Z,15.00
2019-03-24T14:50:53.865Z,15.30
2019-03-24T14:53:17.338Z,12.90
2019-03-24T14:55:47.633Z,13.90
2019-03-24T14:58:17.724Z,13.63
2019-03-24T15:00:48.039Z,13.93
2019-03-24T15:03:18.138Z,15.60
2019-03-24T15:05:48.428Z,12.23
2019-03-24T15:08:20.132Z,15.43
2019-03-24T15:10:50.657Z,13.23
2019-03-24T15:13:20.815Z,13.93
2019-03-24T15:15:50.798Z,12.20
2019-03-24T15:18:20.885Z,12.20
2019-03-24T15:20:51.909Z,15.00
2019-03-24T15:23:21.864Z,15.77
2019-03-24T15:25:52.222Z,11.97
2019-03-24T15:28:25.857Z,13.20
2019-03-24T15:30:56.253Z,11.90
2019-03-24T15:33:26.459Z,12.50
2019-03-24T15:35:56.635Z,9.43
2019-03-24T15:38:26.674Z,12.77
2019-03-24T15:40:57.575Z,9.33
2019-03-24T15:43:28.051Z,8.10
2019-03-24T15:45:58.383Z,10.10
2019-03-24T15:48:28.333Z,7.77
2019-03-24T15:50:58.218Z,11.30
2019-03-24T15:53:28.365Z,8.80
2019-03-24T15:56:01.525Z,11.00
2019-03-24T15:58:31.705Z,9.93
2019-03-24T16:01:02.580Z,9.90
2019-03-24T16:03:32.606Z,10.97
2019-03-24T16:06:02.986Z,9.93
2019-03-24T16:08:34.779Z,12.00
2019-03-24T16:11:05.035Z,9.83
2019-03-24T16:13:35.178Z,10.90
2019-03-24T16:16:06.041Z,10.20
2019-03-24T16:18:36.162Z,9.90
2019-03-24T16:21:06.500Z,10.23
2019-03-24T16:23:37.219Z,11.40
2019-03-24T16:26:07.647Z,10.73
2019-03-24T16:28:37.803Z,10.67
2019-03-24T16:31:07.970Z,10.37
2019-03-24T16:33:38.384Z,10.90
2019-03-24T16:36:08.939Z,9.70
2019-03-24T16:38:48.476Z,8.73
2019-03-24T16:41:10.605Z,10.53
2019-03-24T16:43:40.721Z,10.60
2019-03-24T16:46:11.200Z,10.57
2019-03-24T16:48:41.263Z,12.40
2019-03-24T16:51:11.772Z,11.43
2019-03-24T16:53:43.164Z,10.60
2019-03-24T16:56:13.661Z,10.90
2019-03-24T16:58:46.603Z,9.20
2019-03-24T17:01:15.671Z,10.93
2019-03-24T17:03:45.617Z,10.50
2019-03-24T17:06:15.941Z,8.83
2019-03-24T17:08:46.066Z,9.23
2019-03-24T17:11:16.681Z,10.50
2019-03-24T17:13:47.021Z,10.87
2019-03-24T17:16:17.880Z,8.63
2019-03-24T17:18:48.206Z,9.97
2019-03-24T17:21:20.209Z,8.80
2019-03-24T17:23:55.595Z,9.80
2019-03-24T17:26:26.486Z,10.10
2019-03-24T17:28:58.200Z,7.40
2019-03-24T17:31:28.514Z,6.53
2019-03-24T17:33:59.341Z,7.63
2019-03-24T17:36:31.816Z,8.20
2019-03-24T17:39:01.810Z,8.57
2019-03-24T17:41:34.983Z,8.30
2019-03-24T17:44:05.969Z,8.70
2019-03-24T17:46:36.215Z,9.50
2019-03-24T17:49:07.739Z,9.47
2019-03-24T17:51:40.517Z,8.57
2019-03-24T17:54:10.976Z,9.20
2019-03-24T17:56:41.250Z,9.60
2019-03-24T17:59:11.625Z,8.00
2019-03-24T18:01:41.816Z,9.40
2019-03-24T18:04:11.844Z,8.63
2019-03-24T18:06:42.452Z,9.87
2019-03-24T18:09:12.577Z,8.37
2019-03-24T18:11:42.496Z,9.93
2019-03-24T18:14:14.902Z,9.50
2019-03-24T18:16:45.110Z,9.73
2019-03-24T18:19:15.329Z,10.60
2019-03-24T18:21:45.720Z,10.53
2019-03-24T18:24:16.336Z,9.40
2019-03-24T18:26:46.561Z,9.07
2019-03-24T18:29:17.231Z,10.53
2019-03-24T18:31:47.420Z,10.57
2019-03-24T18:34:17.402Z,11.87
2019-03-24T18:36:47.700Z,13.53
2019-03-24T18:39:19.759Z,10.73
2019-03-24T18:41:49.893Z,13.87
2019-03-24T18:44:20.493Z,11.90
2019-03-24T18:46:50.816Z,13.03
2019-03-24T18:49:21.182Z,13.03
2019-03-24T18:51:51.396Z,11.80
2019-03-24T18:54:21.626Z,13.57
2019-03-24T18:56:51.834Z,12.40
2019-03-24T18:59:26.388Z,13.17
2019-03-24T19:01:58.563Z,14.60
2019-03-24T19:04:28.540Z,14.00
2019-03-24T19:06:58.881Z,13.23
2019-03-24T19:09:29.194Z,12.83
2019-03-24T19:11:59.426Z,10.10
2019-03-24T19:14:30.793Z,12.60
2019-03-24T19:17:03.685Z,12.20
2019-03-24T19:19:33.789Z,12.43
2019-03-24T19:22:04.251Z,9.80
2019-03-24T19:24:34.228Z,10.30
2019-03-24T19:27:04.657Z,9.13
2019-03-24T19:29:37.664Z,8.50
2019-03-24T19:32:09.416Z,8.83
2019-03-24T19:34:43.101Z,9.97
2019-03-24T19:37:14.305Z,8.80
2019-03-24T19:39:44.195Z,9.00
2019-03-24T19:42:25.685Z,6.53
2019-03-24T19:44:59.703Z,5.47
2019-03-24T19:47:33.475Z,7.70
2019-03-24T19:50:03.769Z,6.20
2019-03-24T19:52:44.295Z,6.17
2019-03-24T19:55:08.909Z,5.93
2019-03-24T19:57:39.311Z,5.17
2019-03-24T20:00:09.960Z,5.10
2019-03-24T20:02:40.041Z,4.70
2019-03-24T20:05:10.310Z,4.40
2019-03-24T20:07:47.724Z,2.70
2019-03-24T20:10:13.745Z,2.30
2019-03-24T20:12:43.883Z,3.97
2019-03-24T20:15:14.453Z,2.57
2019-03-24T20:17:44.934Z,2.70
2019-03-24T20:20:15.852Z,2.97
2019-03-24T20:22:55.914Z,2.97
2019-03-24T20:25:18.117Z,2.73
2019-03-24T20:27:48.728Z,2.33
2019-03-24T20:30:19.212Z,2.67
2019-03-24T20:32:49.852Z,3.00
2019-03-24T20:35:20.288Z,2.50
2019-03-24T20:37:50.259Z,2.30
2019-03-24T20:40:20.612Z,2.50
2019-03-24T20:42:51.095Z,2.33
2019-03-24T20:45:21.445Z,2.43
2019-03-24T20:47:51.893Z,2.30
2019-03-24T20:50:22.300Z,2.27
2019-03-24T20:53:03.590Z,2.40
2019-03-24T20:55:25.177Z,1.83
2019-03-24T20:57:55.445Z,2.70
2019-03-24T21:00:33.737Z,2.63
2019-03-24T21:03:05.235Z,2.43
2019-03-24T21:05:35.881Z,2.30
2019-03-24T21:08:06.075Z,1.70
2019-03-24T21:10:36.350Z,2.53
2019-03-24T21:13:06.339Z,2.47
2019-03-24T21:15:36.327Z,2.17
2019-03-24T21:18:06.526Z,2.50
2019-03-24T21:20:37.770Z,1.80
2019-03-24T21:23:07.783Z,1.60
2019-03-24T21:25:37.856Z,2.03
2019-03-24T21:28:08.113Z,1.80
2019-03-24T21:30:40.206Z,2.43
2019-03-24T21:33:10.596Z,1.90
2019-03-24T21:35:41.042Z,2.53
2019-03-24T21:38:11.830Z,1.90
2019-03-24T21:40:42.204Z,1.80
2019-03-24T21:43:15.221Z,1.87
2019-03-24T21:45:45.669Z,1.70
2019-03-24T21:48:15.726Z,1.83
2019-03-24T21:50:46.165Z,2.47
2019-03-24T21:53:17.590Z,1.90
2019-03-24T21:55:48.480Z,1.80
2019-03-24T21:58:19.883Z,1.90
2019-03-24T22:00:50.420Z,1.47
2019-03-24T22:03:20.776Z,1.73
2019-03-24T22:05:57.582Z,1.30
2019-03-24T22:08:26.821Z,1.70
2019-03-24T22:10:56.833Z,2.60
2019-03-24T22:13:26.914Z,1.73
2019-03-24T22:15:57.261Z,2.70
2019-03-24T22:18:27.557Z,1.90
2019-03-24T22:20:57.868Z,1.70
2019-03-24T22:23:27.939Z,1.90
2019-03-24T22:25:58.825Z,2.37
2019-03-24T22:28:29.988Z,2.10
2019-03-24T22:31:00.000Z,1.90
2019-03-24T22:33:32.472Z,2.00
2019-03-24T22:36:03.095Z,2.07
2019-03-24T22:38:33.496Z,1.80
2019-03-24T22:41:03.523Z,1.93
2019-03-24T22:43:33.516Z,3.03
2019-03-24T22:46:03.442Z,2.77
2019-03-24T22:48:33.512Z,2.10
2019-03-24T22:51:03.900Z,2.00
2019-03-24T22:53:34.034Z,1.97
2019-03-24T22:56:03.966Z,1.80
2019-03-24T22:58:34.434Z,1.57
2019-03-24T23:01:04.953Z,1.90
2019-03-24T23:03:39.486Z,1.53
2019-03-24T23:06:10.429Z,1.62
2019-03-24T23:08:41.796Z,1.80
2019-03-24T23:11:12.307Z,2.40
2019-03-24T23:13:42.737Z,1.47
2019-03-24T23:16:12.678Z,2.27
2019-03-24T23:18:42.940Z,2.60
2019-03-24T23:21:13.294Z,1.85
2019-03-24T23:23:43.250Z,2.15
2019-03-24T23:26:13.601Z,1.80
2019-03-24T23:28:44.859Z,1.95
2019-03-24T23:31:15.015Z,1.10
2019-03-24T23:33:45.458Z,1.90
2019-03-24T23:36:15.528Z,1.90
2019-03-24T23:38:45.692Z,2.17
2019-03-24T23:41:16.120Z,1.55
2019-03-24T23:43:46.832Z,1.80
2019-03-24T23:46:16.958Z,2.15
2019-03-24T23:48:46.907Z,1.70
2019-03-24T23:51:17.011Z,2.10
2019-03-24T23:53:47.223Z,2.02
2019-03-24T23:56:17.648Z,2.03
2019-03-24T23:58:47.924Z,1.90
